Time;durP1;ratioP1;P1;durP2;ratioP2;P2;SDS_P1;SDS_P2;PMS_P1;PMS_P2;Temp;Humidity;BMP_temperature;BMP_pressure;BME280_temperature;BME280_humidity;BME280_pressure;Samples;Min_cycle;Max_cycle;Signal;HPM_P1;HPM_P2
2022/06/15 00:00:57;;;;;;;1.50;1.40;;;;;;;18.00;66.86;95637.66;4374542;32;20180;-62
2022/06/15 00:03:25;;;;;;;0.57;0.57;;;;;;;17.98;67.30;95636.41;4372798;32;20193;-64
2022/06/15 00:05:50;;;;;;;1.00;1.00;;;;;;;17.79;66.89;95637.72;4366509;32;20215;-62
2022/06/15 00:08:18;;;;;;;0.50;0.50;;;;;;;17.78;68.06;95644.19;4361069;32;20177;-62
2022/06/15 00:10:46;;;;;;;0.90;0.90;;;;;;;17.96;67.54;95633.28;4373930;32;20172;-62
2022/06/15 00:13:13;;;;;;;1.20;1.20;;;;;;;17.91;67.78;95630.78;4365574;32;20219;-62
2022/06/15 00:15:38;;;;;;;0.60;0.60;;;;;;;17.70;68.07;95636.22;4373610;32;20181;-62
2022/06/15 00:18:03;;;;;;;1.30;1.30;;;;;;;17.81;68.76;95635.47;4361126;32;20192;-63
2022/06/15 00:20:30;;;;;;;0.80;0.80;;;;;;;17.75;68.86;95633.31;4373871;32;20195;-63
2022/06/15 00:22:56;;;;;;;3.70;1.13;;;;;;;17.55;68.21;95631.44;4360045;32;20220;-63
2022/06/15 00:25:21;;;;;;;0.93;0.93;;;;;;;17.76;69.02;95633.00;4374843;32;20182;-63
2022/06/15 00:27:48;;;;;;;1.77;1.67;;;;;;;17.65;69.17;95626.50;4374328;32;20200;-62
2022/06/15 00:30:14;;;;;;;1.60;1.50;;;;;;;17.63;69.42;95631.38;4374239;32;20255;-62
2022/06/15 00:32:40;;;;;;;2.37;2.17;;;;;;;17.69;69.66;95621.22;4374226;32;20241;-62
2022/06/15 00:35:05;;;;;;;4.30;2.17;;;;;;;17.63;69.56;95617.94;4374628;32;20195;-63
2022/06/15 00:37:32;;;;;;;1.57;1.47;;;;;;;17.60;69.88;95615.94;4363989;32;20185;-62
2022/06/15 00:39:57;;;;;;;0.50;0.50;;;;;;;17.59;70.39;95621.62;4374101;32;20176;-63
2022/06/15 00:42:27;;;;;;;1.80;1.70;;;;;;;17.45;70.20;95621.91;4375446;32;20188;-63
2022/06/15 00:44:52;;;;;;;32.20;2.20;;;;;;;17.32;70.59;95615.69;4374587;32;20228;-63
2022/06/15 00:47:25;;;;;;;0.90;0.90;;;;;;;17.40;71.08;95622.09;4374982;32;20177;-62
2022/06/15 00:49:55;;;;;;;1.10;1.10;;;;;;;17.41;70.20;95618.31;4374764;32;20184;-63
2022/06/15 00:52:28;;;;;;;0.60;0.60;;;;;;;17.44;70.09;95612.28;4350203;32;20196;-62
2022/06/15 00:54:54;;;;;;;2.97;1.30;;;;;;;17.52;69.95;95614.09;4352969;32;20181;-63
2022/06/15 00:57:20;;;;;;;0.73;0.73;;;;;;;17.37;70.57;95612.03;4354180;32;20197;-63
2022/06/15 01:00:00;;;;;;;0.63;0.63;;;;;;;17.36;70.59;95611.25;4358390;32;20181;-63
2022/06/15 01:02:27;;;;;;;2.60;1.30;;;;;;;17.30;71.12;95612.56;4355263;32;20199;-63
2022/06/15 01:05:25;;;;;;;1.57;1.47;;;;;;;17.27;70.48;95613.19;4350033;32;20244;-63
2022/06/15 01:07:54;;;;;;;2.00;1.80;;;;;;;17.10;71.09;95610.66;4343147;32;20185;-62
2022/06/15 01:10:56;;;;;;;1.20;1.20;;;;;;;17.15;71.76;95600.53;4351872;32;20197;-62
2022/06/15 01:13:27;;;;;;;1.10;1.10;;;;;;;17.18;71.13;95605.25;4348714;32;20184;-63
2022/06/15 01:16:04;;;;;;;2.07;1.80;;;;;;;17.24;72.38;95608.53;4347263;32;20188;-62
2022/06/15 01:19:27;;;;;;;1.10;1.10;;;;;;;17.25;71.77;95603.94;4346761;32;20181;-62
2022/06/15 01:22:23;;;;;;;15.87;1.33;;;;;;;16.97;71.28;95607.16;4290256;33;20192;-62
2022/06/15 01:25:09;;;;;;;3.07;1.50;;;;;;;17.09;72.65;95601.84;4281668;33;20183;-62
2022/06/15 01:28:09;;;;;;;1.07;1.07;;;;;;;16.87;72.37;95599.47;4346931;32;20181;-62
2022/06/15 01:30:53;;;;;;;1.10;1.10;;;;;;;16.96;73.13;95597.53;4344534;32;20244;-63
2022/06/15 01:33:56;;;;;;;1.10;1.10;;;;;;;17.03;72.70;95592.44;4345735;32;20234;-62
2022/06/15 01:36:35;;;;;;;2.30;1.53;;;;;;;16.98;72.36;95586.47;4348185;32;20177;-63
2022/06/15 01:39:05;;;;;;;0.87;0.87;;;;;;;16.84;73.26;95589.41;4348603;32;20192;-62
2022/06/15 01:41:38;;;;;;;1.20;1.20;;;;;;;16.78;73.86;95596.09;4338541;32;20225;-63
2022/06/15 01:44:13;;;;;;;1.07;1.07;;;;;;;16.79;74.33;95589.63;4357472;32;20180;-62
2022/06/15 01:46:41;;;;;;;1.13;1.13;;;;;;;16.74;72.78;95585.22;4357140;32;20192;-62
2022/06/15 01:49:11;;;;;;;1.93;1.77;;;;;;;16.76;73.49;95591.06;4344735;32;20244;-63
2022/06/15 01:51:41;;;;;;;1.10;1.10;;;;;;;16.77;74.79;95594.50;4349329;32;20189;-62
2022/06/15 01:54:26;;;;;;;2.07;1.77;;;;;;;16.68;73.23;95591.88;4347848;32;20273;-63
2022/06/15 01:56:56;;;;;;;2.80;1.53;;;;;;;16.71;73.78;95593.13;4344847;32;20177;-62
2022/06/15 01:59:43;;;;;;;1.47;1.37;;;;;;;16.61;74.36;95594.28;4359050;32;20185;-63
2022/06/15 02:02:38;;;;;;;0.97;0.97;;;;;;;16.55;75.04;95592.09;4360107;32;20268;-62
2022/06/15 02:05:30;;;;;;;1.60;1.50;;;;;;;16.48;73.57;95581.88;4352854;32;20184;-62
2022/06/15 02:08:08;;;;;;;3.00;1.67;;;;;;;16.51;73.67;95586.59;4348121;32;20244;-62
2022/06/15 02:10:48;;;;;;;0.87;0.87;;;;;;;16.59;75.28;95583.09;4360826;32;20238;-62
2022/06/15 02:13:27;;;;;;;1.20;1.20;;;;;;;16.59;74.45;95582.31;4347610;32;20180;-62
2022/06/15 02:16:00;;;;;;;4.13;1.50;;;;;;;16.64;74.57;95574.88;4361505;32;20215;-62
2022/06/15 02:18:28;;;;;;;1.00;1.00;;;;;;;16.51;73.61;95578.56;4365618;32;20235;-62
2022/06/15 02:21:00;;;;;;;1.43;1.43;;;;;;;16.45;74.18;95577.97;4358998;32;20185;-63
2022/06/15 02:23:29;;;;;;;1.23;1.03;;;;;;;16.23;73.41;95570.19;4359752;32;20196;-62
2022/06/15 02:25:56;;;;;;;1.13;1.13;;;;;;;15.89;75.63;95563.13;4346648;32;20240;-62
2022/06/15 02:28:28;;;;;;;2.20;1.33;;;;;;;16.03;76.69;95560.22;4348866;32;20250;-62
2022/06/15 02:30:53;;;;;;;1.00;1.00;;;;;;;15.93;75.03;95560.59;4365405;32;20177;-62
2022/06/15 02:33:26;;;;;;;1.33;1.33;;;;;;;15.87;77.54;95559.19;4362334;32;20239;-61
2022/06/15 02:35:53;;;;;;;1.30;1.30;;;;;;;15.98;77.72;95553.19;4343379;32;20235;-62
2022/06/15 02:38:18;;;;;;;3.80;1.63;;;;;;;16.08;77.56;95557.37;4360471;32;20181;-61
2022/06/15 02:40:44;;;;;;;0.93;0.93;;;;;;;15.95;75.17;95561.06;4360768;32;20326;-62
2022/06/15 02:43:12;;;;;;;1.57;1.47;;;;;;;15.84;76.39;95552.59;4367582;32;20189;-62
2022/06/15 02:45:39;;;;;;;1.43;1.40;;;;;;;15.84;77.46;95562.50;4347385;32;20295;-62
2022/06/15 02:48:09;;;;;;;2.00;1.00;;;;;;;15.92;78.81;95559.81;4347100;32;20181;-62
2022/06/15 02:50:45;;;;;;;1.13;1.13;;;;;;;15.96;78.07;95565.31;4360563;32;20190;-62
2022/06/15 02:53:16;;;;;;;1.20;1.20;;;;;;;16.09;77.88;95569.66;4368157;32;20201;-62
2022/06/15 02:55:43;;;;;;;2.07;1.83;;;;;;;16.09;77.38;95570.44;4369008;32;20201;-62
2022/06/15 02:58:21;;;;;;;1.43;1.40;;;;;;;16.00;76.77;95568.91;4361627;32;20267;-62
2022/06/15 03:00:47;;;;;;;15.77;2.33;;;;;;;16.18;77.15;95562.38;4375093;32;20192;-61
2022/06/15 03:03:13;;;;;;;1.87;1.77;;;;;;;16.00;75.31;95571.59;4375530;32;20207;-62
2022/06/15 03:05:38;;;;;;;3.00;1.07;;;;;;;15.73;77.45;95567.44;4373665;32;20227;-62
2022/06/15 03:08:05;;;;;;;1.93;1.43;;;;;;;15.88;78.53;95566.91;4361465;32;20199;-61
2022/06/15 03:10:30;;;;;;;1.77;1.70;;;;;;;15.81;77.74;95567.38;4375199;32;20189;-62
2022/06/15 03:12:55;;;;;;;1.13;1.13;;;;;;;16.07;77.57;95556.59;4361153;32;20184;-62
2022/06/15 03:15:21;;;;;;;1.10;1.10;;;;;;;15.94;77.75;95559.50;4376756;32;20185;-62
2022/06/15 03:17:46;;;;;;;1.53;1.43;;;;;;;16.14;78.48;95553.41;4374774;32;20185;-61
2022/06/15 03:20:12;;;;;;;1.10;1.10;;;;;;;16.08;77.65;95546.66;4374742;32;20207;-62
2022/06/15 03:22:39;;;;;;;1.83;1.73;;;;;;;16.08;77.33;95550.13;4374570;32;20189;-62
2022/06/15 03:25:05;;;;;;;5.53;1.60;;;;;;;16.00;75.62;95556.28;4360826;32;20196;-62
2022/06/15 03:27:31;;;;;;;1.33;1.33;;;;;;;16.15;77.67;95546.94;4373170;32;20216;-61
2022/06/15 03:29:57;;;;;;;1.93;1.80;;;;;;;16.01;75.63;95546.38;4374891;32;20239;-62
2022/06/15 03:32:22;;;;;;;1.17;1.17;;;;;;;15.88;77.84;95547.38;4376995;32;20317;-62
2022/06/15 03:34:47;;;;;;;3.33;1.80;;;;;;;15.44;77.21;95546.69;4366931;32;20202;-62
2022/06/15 03:37:13;;;;;;;1.27;1.27;;;;;;;15.63;78.19;95552.50;4374866;32;20208;-61
2022/06/15 03:39:39;;;;;;;1.73;1.63;;;;;;;15.84;77.88;95543.78;4373239;32;20193;-62
2022/06/15 03:42:10;;;;;;;1.23;1.23;;;;;;;15.99;77.84;95543.25;4360563;32;20203;-62
2022/06/15 03:44:36;;;;;;;0.97;0.97;;;;;;;15.80;78.39;95547.09;4361140;32;20192;-62
2022/06/15 03:47:02;;;;;;;1.87;1.70;;;;;;;15.82;77.78;95541.41;4382029;32;20264;-62
2022/06/15 03:49:27;;;;;;;1.00;1.00;;;;;;;15.90;78.80;95537.94;4374409;32;20196;-62
2022/06/15 03:51:53;;;;;;;1.47;1.40;;;;;;;16.03;77.70;95541.47;4366475;32;20204;-62
2022/06/15 03:54:18;;;;;;;1.70;1.60;;;;;;;15.97;78.19;95543.56;4372962;32;20296;-62
2022/06/15 03:56:46;;;;;;;2.53;1.63;;;;;;;15.75;78.75;95543.81;4357174;32;20312;-62
2022/06/15 03:59:13;;;;;;;1.20;1.10;;;;;;;15.77;79.02;95547.75;4354803;32;20236;-61
2022/06/15 04:01:39;;;;;;;1.63;1.53;;;;;;;15.64;78.31;95543.38;4357678;32;20226;-61
2022/06/15 04:04:04;;;;;;;5.80;2.23;;;;;;;15.61;78.68;95543.22;4356900;32;20200;-61
2022/06/15 04:06:30;;;;;;;1.97;1.87;;;;;;;15.76;79.06;95545.41;4369258;32;20193;-61
2022/06/15 04:08:55;;;;;;;2.40;1.63;;;;;;;15.71;79.11;95545.56;4359379;32;20234;-62
2022/06/15 04:14:04;;;;;;;3.60;2.03;;;;;;;15.53;78.88;95557.37;4359415;32;20246;-62
2022/06/15 04:16:30;;;;;;;1.47;1.47;;;;;;;15.53;77.57;95560.06;4358167;32;20209;-62
2022/06/15 04:19:02;;;;;;;2.50;2.33;;;;;;;15.45;80.00;95561.62;4360354;32;20189;-62
2022/06/15 04:21:27;;;;;;;1.97;1.87;;;;;;;15.24;78.19;95555.38;4365081;32;20280;-62
2022/06/15 04:23:52;;;;;;;1.60;1.50;;;;;;;15.50;80.58;95560.69;4361298;32;20197;-62
2022/06/15 04:26:18;;;;;;;1.80;1.70;;;;;;;15.39;80.08;95554.88;4357700;32;20189;-62
2022/06/15 04:28:44;;;;;;;1.70;1.60;;;;;;;15.65;78.80;95555.63;4360909;32;21533;-62
2022/06/15 04:31:09;;;;;;;1.27;1.27;;;;;;;15.85;79.82;95558.72;4363180;32;20189;-62
2022/06/15 04:33:35;;;;;;;1.17;1.17;;;;;;;15.92;78.16;95559.03;4364798;32;20189;-62
2022/06/15 04:36:05;;;;;;;4.57;1.83;;;;;;;16.06;79.84;95565.72;4359356;32;20203;-62
2022/06/15 04:38:31;;;;;;;3.90;2.63;;;;;;;15.88;78.63;95566.13;4369785;32;20250;-62
2022/06/15 04:40:57;;;;;;;1.80;1.57;;;;;;;15.81;78.63;95570.06;4359106;32;20193;-61
2022/06/15 04:43:23;;;;;;;3.57;2.13;;;;;;;15.90;78.65;95566.56;4371241;32;20251;-63
2022/06/15 04:45:48;;;;;;;1.77;1.67;;;;;;;15.89;78.77;95567.69;4359594;32;20197;-63
2022/06/15 04:48:14;;;;;;;1.33;1.33;;;;;;;16.01;78.60;95567.78;4370845;32;20275;-62
2022/06/15 04:50:39;;;;;;;1.60;1.60;;;;;;;16.17;79.21;95571.50;4369619;32;20262;-62
2022/06/15 04:53:05;;;;;;;1.37;1.37;;;;;;;16.01;76.72;95570.47;4369406;32;20196;-62
2022/06/15 04:55:33;;;;;;;1.60;1.50;;;;;;;16.14;77.63;95572.16;4366170;32;20197;-62
2022/06/15 04:57:59;;;;;;;1.53;1.20;;;;;;;16.20;77.42;95570.88;4359105;32;20194;-62
2022/06/15 05:00:29;;;;;;;1.23;1.17;;;;;;;16.27;78.00;95576.47;4357414;32;20299;-63
2022/06/15 05:02:55;;;;;;;1.33;1.33;;;;;;;16.36;78.09;95565.75;4359166;32;20219;-65
2022/06/15 05:05:20;;;;;;;1.50;1.40;;;;;;;16.33;78.09;95561.03;4359727;32;20197;-62
2022/06/15 05:07:46;;;;;;;2.13;2.03;;;;;;;16.47;78.60;95565.03;4356202;32;20213;-63
2022/06/15 05:10:18;;;;;;;2.97;1.87;;;;;;;16.57;76.69;95563.09;4347546;32;20246;-63
2022/06/15 05:12:44;;;;;;;1.80;1.63;;;;;;;16.66;76.74;95563.84;4355432;32;20212;-63
2022/06/15 05:15:13;;;;;;;4.83;1.90;;;;;;;16.69;76.90;95560.50;4361770;32;20280;-63
2022/06/15 05:17:40;;;;;;;2.27;1.80;;;;;;;16.73;76.20;95574.84;4349157;32;20211;-63
2022/06/15 05:20:08;;;;;;;1.57;1.47;;;;;;;16.80;76.12;95575.09;4356004;32;20211;-63
2022/06/15 05:22:37;;;;;;;1.50;1.50;;;;;;;16.84;76.84;95578.69;4355863;32;20208;-63
2022/06/15 05:25:07;;;;;;;1.10;1.10;;;;;;;16.80;75.89;95583.94;4356961;32;20207;-63
2022/06/15 05:27:34;;;;;;;1.63;1.53;;;;;;;16.70;76.09;95580.84;4357641;32;20200;-63
2022/06/15 05:29:59;;;;;;;1.13;1.10;;;;;;;16.73;77.69;95582.88;4357765;32;20200;-63
2022/06/15 05:32:25;;;;;;;1.87;1.63;;;;;;;16.87;76.27;95582.59;4358434;32;20211;-64
2022/06/15 05:34:50;;;;;;;1.43;1.43;;;;;;;17.13;76.81;95589.34;4360547;32;20303;-63
2022/06/15 05:37:17;;;;;;;1.00;1.00;;;;;;;17.11;75.56;95586.22;4362286;32;20219;-63
2022/06/15 05:39:42;;;;;;;1.23;1.23;;;;;;;17.09;75.06;95580.37;4372353;32;20245;-63
2022/06/15 05:42:08;;;;;;;0.70;0.70;;;;;;;17.16;76.55;95577.97;4354536;32;20196;-63
2022/06/15 05:47:05;;;;;;;1.00;1.00;;;;;;;17.39;76.07;95570.34;4361700;32;20200;-63
2022/06/15 05:49:31;;;;;;;0.63;0.63;;;;;;;17.45;75.77;95576.31;4359080;32;20185;-63
2022/06/15 05:51:56;;;;;;;1.50;1.40;;;;;;;17.44;76.26;95580.09;4367829;32;20211;-63
2022/06/15 05:54:21;;;;;;;2.67;1.63;;;;;;;17.61;75.96;95574.56;4365341;32;20193;-63
2022/06/15 05:56:47;;;;;;;0.93;0.93;;;;;;;17.62;75.60;95575.34;4361325;32;20212;-63
2022/06/15 05:59:13;;;;;;;1.27;1.27;;;;;;;17.54;75.48;95568.94;4360203;32;20236;-63
2022/06/15 06:01:39;;;;;;;3.13;1.37;;;;;;;17.55;75.41;95575.09;4363710;32;20204;-63
2022/06/15 06:04:06;;;;;;;1.60;1.53;;;;;;;17.57;76.39;95579.03;4359290;32;20212;-63
2022/06/15 06:06:32;;;;;;;3.97;1.50;;;;;;;17.68;75.55;95574.81;4360972;32;20203;-63
2022/06/15 06:08:59;;;;;;;1.10;1.10;;;;;;;17.72;75.61;95575.72;4360988;32;20311;-63
2022/06/15 06:11:25;;;;;;;1.20;1.10;;;;;;;17.83;75.58;95578.78;4360472;32;20231;-65
2022/06/15 06:13:51;;;;;;;1.10;0.97;;;;;;;18.02;75.06;95568.28;4363082;32;20200;-63
2022/06/15 06:16:19;;;;;;;1.47;1.37;;;;;;;18.13;74.67;95572.09;4358908;32;20256;-63
2022/06/15 06:18:47;;;;;;;1.50;1.40;;;;;;;18.20;74.43;95575.03;4363421;32;20276;-63
2022/06/15 06:21:12;;;;;;;1.63;0.90;;;;;;;18.13;74.23;95576.69;4359333;32;20211;-63
2022/06/15 06:23:38;;;;;;;1.27;1.27;;;;;;;18.32;74.51;95571.53;4360898;32;20236;-63
2022/06/15 06:26:17;;;;;;;1.17;1.07;;;;;;;18.35;73.93;95573.56;4360116;32;20189;-64
2022/06/15 06:28:43;;;;;;;0.87;0.87;;;;;;;18.62;72.33;95568.66;4371366;32;20193;-63
2022/06/15 06:31:10;;;;;;;0.97;0.97;;;;;;;18.77;73.10;95565.25;4361090;32;20223;-63
2022/06/15 06:33:36;;;;;;;2.03;1.60;;;;;;;18.60;71.14;95566.28;4358957;32;20197;-63
2022/06/15 06:36:11;;;;;;;1.17;1.17;;;;;;;18.85;72.58;95565.13;4360457;32;20180;-63
2022/06/15 06:38:37;;;;;;;1.37;1.27;;;;;;;18.99;71.36;95564.75;4360601;32;20180;-63
2022/06/15 06:41:05;;;;;;;1.77;1.67;;;;;;;19.09;70.38;95572.37;4371707;32;20208;-61
2022/06/15 06:43:31;;;;;;;1.20;1.13;;;;;;;19.23;70.53;95575.44;4360911;32;20193;-61
2022/06/15 06:45:58;;;;;;;0.80;0.80;;;;;;;19.20;69.71;95578.03;4358555;32;20193;-61
2022/06/15 06:48:23;;;;;;;1.07;1.07;;;;;;;19.37;70.55;95576.94;4361716;32;20197;-62
2022/06/15 06:50:51;;;;;;;0.67;0.67;;;;;;;19.54;70.69;95573.97;4357418;32;20299;-61
2022/06/15 06:53:16;;;;;;;1.33;1.00;;;;;;;19.63;70.02;95585.38;4344402;32;20257;-62
2022/06/15 06:55:41;;;;;;;1.13;0.80;;;;;;;19.68;69.94;95578.97;4345441;32;20247;-61
2022/06/15 06:58:08;;;;;;;0.40;0.40;;;;;;;19.73;68.25;95587.59;4356762;32;20300;-61
2022/06/15 07:00:36;;;;;;;0.97;0.97;;;;;;;19.94;67.69;95576.59;4344063;32;20281;-61
2022/06/15 07:03:05;;;;;;;0.90;0.87;;;;;;;20.21;67.33;95578.41;4356581;32;20198;-62
2022/06/15 07:05:36;;;;;;;1.00;1.00;;;;;;;20.40;66.25;95580.41;4344155;32;20197;-62
2022/06/15 07:08:02;;;;;;;1.53;1.43;;;;;;;20.70;64.30;95567.25;4345798;32;20217;-62
2022/06/15 07:10:29;;;;;;;0.90;0.90;;;;;;;20.65;63.57;95570.22;4344402;32;20281;-62
2022/06/15 07:12:54;;;;;;;0.97;0.97;;;;;;;20.81;64.54;95575.56;4336589;32;20224;-62
2022/06/15 07:15:20;;;;;;;1.30;1.00;;;;;;;20.88;62.21;95570.31;4356052;32;20185;-62
2022/06/15 07:17:45;;;;;;;1.23;1.23;;;;;;;21.04;62.62;95578.38;4334458;32;20189;-62
2022/06/15 07:20:12;;;;;;;0.83;0.83;;;;;;;21.24;62.74;95578.06;4342270;32;20208;-62
2022/06/15 07:22:38;;;;;;;1.00;1.00;;;;;;;21.04;61.88;95581.84;4345670;32;20185;-62
2022/06/15 07:25:06;;;;;;;2.00;1.53;;;;;;;21.13;61.68;95568.94;4350946;32;20193;-62
2022/06/15 07:27:33;;;;;;;0.70;0.70;;;;;;;21.05;61.64;95572.63;4345395;32;20185;-62
2022/06/15 07:30:01;;;;;;;0.77;0.77;;;;;;;21.02;62.78;95581.41;4345008;32;20271;-62
2022/06/15 07:32:26;;;;;;;0.73;0.73;;;;;;;21.03;63.42;95580.28;4355545;32;20223;-62
2022/06/15 07:34:51;;;;;;;0.70;0.70;;;;;;;21.01;63.05;95587.16;4346482;32;20193;-62
2022/06/15 07:37:17;;;;;;;1.10;1.10;;;;;;;21.09;61.50;95575.41;4344732;32;20237;-62
2022/06/15 07:39:43;;;;;;;1.23;1.13;;;;;;;21.08;61.56;95582.72;4345571;32;20219;-62
2022/06/15 07:42:10;;;;;;;0.83;0.83;;;;;;;21.06;64.29;95584.97;4342926;32;20197;-63
2022/06/15 07:44:37;;;;;;;0.90;0.90;;;;;;;21.07;62.30;95581.13;4342779;32;20197;-63
2022/06/15 07:49:55;;;;;;;0.90;0.90;;;;;;;21.04;61.97;95573.75;4344082;32;20239;-63
2022/06/15 07:52:30;;;;;;;1.70;1.60;;;;;;;21.05;64.91;95583.41;4370441;32;20231;-61
2022/06/15 07:54:55;;;;;;;0.77;0.77;;;;;;;21.13;63.50;95573.56;4372811;32;20215;-62
2022/06/15 07:57:22;;;;;;;0.47;0.47;;;;;;;21.30;61.92;95583.19;4362729;32;20192;-61
2022/06/15 07:59:49;;;;;;;0.57;0.57;;;;;;;21.35;62.53;95585.59;4374035;32;20211;-61
2022/06/15 08:02:15;;;;;;;0.97;0.97;;;;;;;21.36;62.68;95581.75;4373807;32;20193;-61
2022/06/15 08:04:40;;;;;;;1.83;1.43;;;;;;;21.40;63.45;95577.22;4373932;32;20220;-61
2022/06/15 08:07:08;;;;;;;1.00;1.00;;;;;;;21.40;64.09;95580.69;4360946;32;20193;-61
2022/06/15 08:09:34;;;;;;;0.70;0.70;;;;;;;21.48;61.00;95573.50;4374565;32;20261;-54
2022/06/15 08:12:12;;;;;;;0.87;0.87;;;;;;;21.46;60.70;95575.78;4372745;32;20188;-57
2022/06/15 08:14:41;;;;;;;0.97;0.97;;;;;;;21.44;62.69;95578.03;4374576;32;20280;-55
2022/06/15 08:17:11;;;;;;;0.63;0.63;;;;;;;21.43;63.81;95579.19;4373488;32;20207;-54
2022/06/15 08:19:41;;;;;;;0.83;0.83;;;;;;;21.39;64.39;95575.66;4371506;32;20192;-55
2022/06/15 08:22:09;;;;;;;0.67;0.67;;;;;;;21.37;63.13;95570.63;4373702;32;20204;-56
2022/06/15 08:24:35;;;;;;;1.33;1.33;;;;;;;;;;4359543;32;20196;-57
2022/06/15 08:27:01;;;;;;;0.73;0.73;;;;;;;21.60;60.84;95559.88;4374516;32;20265;-55
2022/06/15 08:29:27;;;;;;;0.43;0.43;;;;;;;21.64;60.32;95563.38;4373824;32;20245;-58
2022/06/15 08:31:57;;;;;;;1.67;1.40;;;;;;;21.67;61.03;95562.69;4370608;32;20297;-55
2022/06/15 08:34:24;;;;;;;0.90;0.90;;;;;;;21.67;61.04;95559.97;4366221;32;20207;-56
2022/06/15 08:36:50;;;;;;;2.37;1.17;;;;;;;21.62;61.81;95552.16;4359930;32;20177;-56
2022/06/15 08:39:16;;;;;;;1.00;1.00;;;;;;;21.69;60.88;95563.09;4358840;32;20219;-56
2022/06/15 08:42:03;;;;;;;0.70;0.70;;;;;;;21.67;61.20;95570.78;4372777;32;20235;-57
2022/06/15 08:44:48;;;;;;;0.80;0.80;;;;;;;21.73;60.87;95563.97;4358807;32;20289;-56
2022/06/15 08:47:33;;;;;;;1.13;1.13;;;;;;;21.79;60.71;95572.56;4374358;32;20256;-56
2022/06/15 08:50:20;;;;;;;0.50;0.50;;;;;;;21.74;60.99;95562.03;4356603;32;20235;-56
2022/06/15 08:53:08;;;;;;;0.70;0.70;;;;;;;21.79;61.02;95572.56;4345325;32;20284;-57
2022/06/15 08:55:44;;;;;;;1.33;1.23;;;;;;;21.76;61.58;95557.84;4354062;32;20184;-53
2022/06/15 08:58:25;;;;;;;1.30;1.20;;;;;;;21.68;61.62;95564.25;4344199;32;20261;-56
2022/06/15 09:00:57;;;;;;;1.07;0.87;;;;;;;22.09;60.47;95564.59;4344279;32;20197;-56
2022/06/15 09:03:32;;;;;;;0.70;0.70;;;;;;;22.29;60.10;95557.97;4343231;32;20197;-57
2022/06/15 09:06:16;;;;;;;0.90;0.90;;;;;;;22.29;59.81;95553.34;4351155;32;20193;-57
2022/06/15 09:08:51;;;;;;;1.80;0.87;;;;;;;22.37;60.15;95559.66;4345911;32;20215;-57
2022/06/15 09:11:35;;;;;;;0.73;0.73;;;;;;;22.46;59.68;95562.88;4349978;32;20207;-57
2022/06/15 09:14:38;;;;;;;1.13;0.90;;;;;;;22.43;59.04;95566.31;4349930;32;20197;-56
2022/06/15 09:17:18;;;;;;;0.83;0.83;;;;;;;22.60;58.50;95563.09;4345525;32;20185;-58
2022/06/15 09:19:50;;;;;;;0.87;0.87;;;;;;;22.76;57.78;95556.75;4350913;32;20296;-56
2022/06/15 09:22:23;;;;;;;0.57;0.57;;;;;;;23.01;56.36;95559.81;4352226;32;20264;-58
2022/06/15 09:24:59;;;;;;;1.67;1.60;;;;;;;23.13;55.73;95551.47;4353688;32;20212;-57
2022/06/15 09:27:31;;;;;;;0.50;0.50;;;;;;;22.83;58.09;95554.19;4353096;32;20223;-57
2022/06/15 09:30:04;;;;;;;0.73;0.73;;;;;;;22.82;60.22;95560.72;4347693;32;20201;-57
2022/06/15 09:32:37;;;;;;;0.77;0.77;;;;;;;22.91;58.02;95555.81;4345384;32;20197;-55
2022/06/15 09:35:26;;;;;;;0.70;0.70;;;;;;;22.74;59.37;95559.81;4346118;32;20273;-57
2022/06/15 09:37:55;;;;;;;1.37;1.27;;;;;;;22.89;58.84;95558.09;4347176;32;20193;-57
2022/06/15 09:40:25;;;;;;;0.97;0.97;;;;;;;22.83;59.21;95559.59;4345465;32;20204;-56
2022/06/15 09:43:02;;;;;;;0.83;0.83;;;;;;;22.85;59.45;95558.09;4348876;32;20185;-56
2022/06/15 09:45:43;;;;;;;1.70;1.33;;;;;;;22.92;59.60;95547.34;4359407;32;20203;-56
2022/06/15 09:48:32;;;;;;;0.47;0.47;;;;;;;23.15;56.92;95549.94;4358941;32;20247;-58
2022/06/15 09:51:33;;;;;;;0.70;0.70;;;;;;;23.12;56.65;95545.25;4359658;32;20197;-57
2022/06/15 09:53:59;;;;;;;0.60;0.60;;;;;;;23.38;55.80;95547.13;4361962;32;20244;-56
2022/06/15 09:56:24;;;;;;;1.00;1.00;;;;;;;23.12;56.92;95550.69;4374695;32;20253;-57
2022/06/15 09:59:07;;;;;;;0.57;0.57;;;;;;;23.45;54.86;95557.28;4360756;32;20205;-57
2022/06/15 10:01:36;;;;;;;0.43;0.43;;;;;;;23.41;55.74;95553.75;4360919;32;20197;-57
2022/06/15 10:04:04;;;;;;;1.40;1.30;;;;;;;23.36;57.01;95557.53;4361024;32;20298;-58
2022/06/15 10:06:59;;;;;;;0.40;0.40;;;;;;;23.38;56.24;95552.53;4359276;32;20193;-57
2022/06/15 10:09:28;;;;;;;0.60;0.60;;;;;;;23.33;56.71;95557.50;4360474;32;20193;-58
2022/06/15 10:12:56;;;;;;;0.53;0.53;;;;;;;23.37;56.43;95555.63;4360158;32;20201;-57
2022/06/15 10:14:51;;;;;;;1.67;1.10;;;;;;;23.39;56.23;95550.63;4361181;32;20284;-57
2022/06/15 10:17:32;;;;;;;1.40;1.40;;;;;;;23.19;57.14;95550.78;4359614;32;20193;-58
2022/06/15 10:19:59;;;;;;;0.50;0.50;;;;;;;23.36;55.92;95546.72;4361013;32;20213;-57
2022/06/15 10:22:31;;;;;;;1.03;1.00;;;;;;;23.20;55.54;95546.91;4362531;32;20227;-56
2022/06/15 10:24:59;;;;;;;0.50;0.50;;;;;;;23.28;56.44;95550.47;4360675;32;20193;-57
2022/06/15 10:27:25;;;;;;;0.93;0.93;;;;;;;23.64;55.75;95554.41;4361443;32;20225;-45
2022/06/15 10:30:20;;;;;;;0.57;0.57;;;;;;;23.57;55.55;95554.31;4380976;32;20208;-57
2022/06/15 10:33:00;;;;;;;1.00;1.00;;;;;;;23.28;57.09;95553.97;4358313;32;20285;-55
2022/06/15 10:35:29;;;;;;;0.93;0.93;;;;;;;23.67;54.05;95545.53;4358925;32;20188;-57
2022/06/15 10:37:58;;;;;;;1.03;0.70;;;;;;;23.78;53.54;95541.00;4360770;32;20207;-53
2022/06/15 10:40:31;;;;;;;0.70;0.70;;;;;;;23.87;52.15;95541.50;4361707;32;20204;-56
2022/06/15 10:43:03;;;;;;;2.70;2.53;;;;;;;24.02;52.33;95533.47;4359254;32;20197;-53
2022/06/15 10:45:44;;;;;;;0.60;0.60;;;;;;;23.94;53.24;95536.13;4358741;32;20177;-58
2022/06/15 10:48:17;;;;;;;0.60;0.60;;;;;;;24.23;51.38;95542.56;4360291;32;20293;-57
2022/06/15 10:50:58;;;;;;;0.93;0.93;;;;;;;24.69;50.29;95531.28;4359828;32;20194;-56
2022/06/15 10:53:46;;;;;;;0.73;0.73;;;;;;;24.69;50.28;95535.94;4371527;32;20230;-58
2022/06/15 11:02:43;;;;;;;1.27;1.27;;;;;;;24.19;52.52;95524.69;4361846;32;20211;-58
2022/06/15 11:05:18;;;;;;;1.57;1.40;;;;;;;24.41;52.45;95521.03;4358279;32;20201;-57
2022/06/15 11:07:53;;;;;;;0.93;0.93;;;;;;;24.52;52.24;95521.91;4358947;32;20192;-57
2022/06/15 11:10:29;;;;;;;0.60;0.60;;;;;;;24.28;52.88;95519.78;4358219;32;20238;-57
2022/06/15 11:13:00;;;;;;;1.07;1.07;;;;;;;24.54;52.85;95514.13;4360074;32;20188;-54
2022/06/15 11:18:29;;;;;;;1.07;1.07;;;;;;;25.16;50.02;95519.53;4350723;32;20227;-57
2022/06/15 11:21:18;;;;;;;1.17;1.17;;;;;;;24.76;52.26;95519.69;4369605;32;20185;-53
2022/06/15 11:24:05;;;;;;;0.70;0.70;;;;;;;24.44;52.72;95514.06;4365489;32;20200;-57
2022/06/15 11:26:57;;;;;;;7.53;1.00;;;;;;;24.77;51.56;95511.16;4354420;32;20177;-56
2022/06/15 11:29:49;;;;;;;1.20;1.20;;;;;;;25.10;50.40;95510.19;4353749;32;20250;-57
2022/06/15 11:32:27;;;;;;;0.70;0.70;;;;;;;25.09;49.28;95505.16;4357208;32;20247;-56
2022/06/15 11:35:00;;;;;;;0.90;0.90;;;;;;;24.86;50.66;95503.47;4361182;32;20260;-56
2022/06/15 11:38:11;;;;;;;0.60;0.60;;;;;;;25.13;49.43;95506.72;4361721;32;20206;-57
2022/06/15 11:40:55;;;;;;;0.50;0.50;;;;;;;24.35;52.29;95500.81;4357547;32;20188;-56
2022/06/15 11:43:30;;;;;;;1.43;1.17;;;;;;;24.48;52.94;95504.81;4358145;32;20200;-54
2022/06/15 11:46:10;;;;;;;1.03;1.03;;;;;;;24.34;53.41;95510.13;4365170;32;20192;-56
2022/06/15 11:48:42;;;;;;;0.53;0.53;;;;;;;24.12;53.62;95511.06;4358297;32;20220;-55
2022/06/15 11:51:22;;;;;;;1.07;1.07;;;;;;;24.19;53.21;95508.44;4363543;32;20208;-57
2022/06/15 11:54:03;;;;;;;0.77;0.77;;;;;;;23.82;54.84;95505.81;4360725;32;20207;-56
2022/06/15 11:56:37;;;;;;;0.50;0.50;;;;;;;23.89;54.40;95495.81;4371720;32;20216;-56
2022/06/15 11:59:10;;;;;;;0.93;0.93;;;;;;;23.71;55.80;95499.50;4372536;32;20286;-56
2022/06/15 12:01:35;;;;;;;1.17;1.17;;;;;;;23.97;54.74;95502.84;4373535;32;20222;-57
2022/06/15 12:04:15;;;;;;;0.93;0.93;;;;;;;24.47;50.75;95491.63;4373789;32;20196;-54
2022/06/15 12:07:02;;;;;;;2.67;0.60;;;;;;;23.97;53.69;95497.41;4371743;32;20193;-56
2022/06/15 12:09:34;;;;;;;1.03;1.03;;;;;;;23.71;54.79;95486.72;4369412;32;20189;-56
2022/06/15 12:15:08;;;;;;;0.93;0.90;;;;;;;23.91;54.18;95492.72;4373186;32;20250;-57